.
WxDataArchive / Data Records for 2008-09-16
2008-09-15 September 2008 2008-09-17

Data Records for Tuesday, 16 September 2008

Time	Temp	Chill	HIndex	Humid	Dewpt	 Wind 	HiWind	WindDir	Rain 	Barom 
-----	----	-----	------	-----	-----	------	------	-------	-----	----- 
00:00	58.3	58.3	58.3	85	53.8	0	0	---	0.00	30.121 
00:05	58.1	58.1	58.1	85	53.6	0	0	---	0.00	30.120 
00:10	58.0	58.0	58.0	85	53.5	0	1	0	0.00	30.121 
00:15	57.6	57.6	57.6	85	53.1	0	1	0	0.00	30.121 
00:20	57.5	57.5	57.5	86	53.3	0	0	---	0.00	30.121 
00:25	57.2	57.2	57.2	86	53.0	0	0	---	0.00	30.123 
00:30	57.0	57.0	57.0	86	52.9	0	0	---	0.00	30.121 
00:35	56.9	56.9	56.9	87	53.1	0	1	0	0.00	30.122 
00:40	56.6	56.6	56.6	87	52.8	0	0	---	0.00	30.122 
00:45	56.5	56.5	56.5	88	53.0	0	0	---	0.00	30.123 
00:50	56.5	56.5	56.5	88	53.0	0	0	---	0.00	30.122 
00:55	56.3	56.3	56.3	88	52.8	0	0	---	0.00	30.121 
01:00	56.3	56.3	56.3	89	53.1	0	0	---	0.00	30.122 
01:05	56.5	56.5	56.5	89	53.3	0	0	---	0.00	30.119 
01:10	56.5	56.5	56.5	89	53.3	0	0	---	0.00	30.119 
01:15	56.5	56.5	56.5	89	53.3	0	0	---	0.00	30.120 
01:20	56.5	56.5	56.5	89	53.3	0	0	---	0.00	30.118 
01:25	56.5	56.5	56.5	88	53.0	0	0	---	0.00	30.117 
01:30	56.5	56.5	56.5	88	53.0	0	0	---	0.00	30.112 
01:35	56.5	56.5	56.5	88	53.0	0	0	---	0.00	30.113 
01:40	56.3	56.3	56.3	88	52.8	0	1	0	0.00	30.117 
01:45	56.3	56.3	56.3	88	52.8	0	0	---	0.00	30.117 
01:50	56.2	56.2	56.2	88	52.7	0	0	---	0.00	30.117 
01:55	56.0	56.0	56.0	88	52.5	0	0	---	0.00	30.116 
02:00	55.9	55.9	55.9	88	52.4	0	0	---	0.00	30.115 
02:05	55.7	55.7	55.7	89	52.5	0	0	---	0.00	30.116 
02:10	55.7	55.7	55.7	89	52.5	0	0	---	0.00	30.119 
02:15	55.6	55.6	55.6	89	52.4	0	0	---	0.00	30.117 
02:20	55.6	55.6	55.6	89	52.4	0	0	---	0.00	30.117 
02:25	55.4	55.4	55.4	89	52.2	0	0	---	0.00	30.117 
02:30	55.4	55.4	55.4	90	52.5	0	0	---	0.00	30.112 
02:35	55.3	55.3	55.3	90	52.4	0	0	---	0.00	30.111 
02:40	55.3	55.3	55.3	90	52.4	0	0	---	0.00	30.110 
02:45	55.3	55.3	55.3	90	52.4	0	0	---	0.00	30.114 
02:50	55.4	55.4	55.4	91	52.8	0	1	0	0.00	30.116 
02:55	55.6	55.6	55.6	91	53.0	0	0	---	0.00	30.116 
03:00	55.6	55.6	55.6	91	53.0	0	0	---	0.00	30.117 
03:05	55.7	55.7	55.7	91	53.1	0	0	---	0.00	30.120 
03:10	55.7	55.7	55.7	90	52.8	0	0	---	0.00	30.121 
03:15	55.9	55.9	55.9	90	53.0	0	0	---	0.00	30.122 
03:20	55.9	55.9	55.9	90	53.0	0	0	---	0.00	30.123 
03:25	55.7	55.7	55.7	90	52.8	0	0	---	0.00	30.122 
03:30	55.7	55.7	55.7	90	52.8	0	0	---	0.00	30.121 
03:35	55.6	55.6	55.6	90	52.7	0	0	---	0.00	30.121 
03:40	55.4	55.4	55.4	90	52.5	0	0	---	0.00	30.123 
03:45	55.3	55.3	55.3	90	52.4	0	0	---	0.00	30.124 
03:50	55.3	55.3	55.3	91	52.7	0	0	---	0.00	30.125 
03:55	55.1	55.1	55.1	91	52.5	0	0	---	0.00	30.126 
04:00	55.1	55.1	55.1	91	52.5	0	0	---	0.00	30.126 
04:05	55.0	55.0	55.0	91	52.4	0	0	---	0.00	30.127 
04:10	55.0	55.0	55.0	91	52.4	0	0	---	0.00	30.128 
04:15	55.0	55.0	55.0	91	52.4	0	0	---	0.00	30.129 
04:20	54.8	54.8	54.8	91	52.2	0	0	---	0.00	30.129 
04:25	54.8	54.8	54.8	91	52.2	0	0	---	0.00	30.129 
04:30	54.7	54.7	54.7	91	52.1	0	0	---	0.00	30.129 
04:35	54.5	54.5	54.5	92	52.2	0	0	---	0.00	30.129 
04:40	54.4	54.4	54.4	92	52.1	0	0	---	0.00	30.131 
04:45	54.2	54.2	54.2	92	51.9	0	0	---	0.00	30.131 
04:50	54.1	54.1	54.1	92	51.8	0	0	---	0.00	30.131 
04:55	53.9	53.9	53.9	92	51.6	0	0	---	0.00	30.133 
05:00	53.8	53.8	53.8	92	51.5	0	0	---	0.00	30.138 
05:05	53.6	53.6	53.6	92	51.3	0	0	---	0.00	30.144 
05:10	53.6	53.6	53.6	93	51.6	0	0	---	0.00	30.145 
05:15	53.6	53.6	53.6	93	51.6	0	0	---	0.00	30.146 
05:20	53.6	53.6	53.6	93	51.6	0	0	---	0.00	30.148 
05:25	53.6	53.6	53.6	93	51.6	0	0	---	0.00	30.147 
05:30	53.6	53.6	53.6	93	51.6	0	0	---	0.00	30.147 
05:35	53.6	53.6	53.6	93	51.6	0	0	---	0.00	30.148 
05:40	53.6	53.6	53.6	94	51.9	0	0	---	0.00	30.150 
05:45	53.5	53.5	53.5	94	51.8	0	0	---	0.00	30.152 
05:50	53.3	53.3	53.3	94	51.6	0	0	---	0.00	30.152 
05:55	53.2	53.2	53.2	94	51.5	0	0	---	0.00	30.152 
06:00	53.1	53.1	53.1	94	51.4	0	0	---	0.00	30.154 
06:05	52.9	52.9	52.9	94	51.2	0	0	---	0.00	30.162 
06:10	52.8	52.8	52.8	94	51.1	0	0	---	0.00	30.164 
06:15	52.8	52.8	52.8	94	51.1	0	0	---	0.00	30.163 
06:20	52.6	52.6	52.6	94	50.9	0	0	---	0.00	30.164 
06:25	52.8	52.8	52.8	94	51.1	0	0	---	0.00	30.166 
06:30	52.8	52.8	52.8	94	51.1	0	0	---	0.00	30.166 
06:35	52.9	52.9	52.9	94	51.2	0	0	---	0.00	30.168 
06:40	52.9	52.9	52.9	94	51.2	0	0	---	0.00	30.170 
06:45	52.8	52.8	52.8	94	51.1	0	0	---	0.00	30.170 
06:50	52.8	52.8	52.8	94	51.1	0	0	---	0.00	30.173 
06:55	52.6	52.6	52.6	94	50.9	0	0	---	0.00	30.176 
07:00	52.6	52.6	52.6	95	51.2	0	0	---	0.00	30.176 
07:05	52.8	52.8	52.8	95	51.4	0	0	---	0.00	30.179 
07:10	52.9	52.9	52.9	95	51.5	0	0	---	0.00	30.180 
07:15	53.2	53.2	53.2	95	51.8	0	0	---	0.00	30.180 
07:20	53.5	53.5	53.5	95	52.1	0	0	---	0.00	30.181 
07:25	53.9	53.9	53.9	95	52.5	0	0	---	0.00	30.180 
07:30	54.4	54.4	54.4	95	53.0	0	0	---	0.00	30.181 
07:35	54.7	54.7	54.7	95	53.3	0	0	---	0.00	30.182 
07:40	54.8	54.8	54.8	94	53.1	0	0	---	0.00	30.185 
07:45	55.0	55.0	55.0	94	53.3	0	0	---	0.00	30.186 
07:50	55.1	55.1	55.1	93	53.1	0	1	0	0.00	30.188 
07:55	55.4	55.4	55.4	93	53.4	0	0	---	0.00	30.192 
08:00	55.7	55.7	55.7	92	53.4	0	0	---	0.00	30.192 
08:05	56.0	56.0	56.0	92	53.7	0	1	0	0.00	30.193 
08:10	56.3	56.3	56.3	91	53.7	0	1	0	0.00	30.194 
08:15	56.7	56.7	56.7	90	53.8	0	1	0	0.00	30.194 
08:20	57.0	57.0	57.0	89	53.8	0	2	0	0.00	30.195 
08:25	57.3	57.3	57.3	88	53.8	0	1	0	0.00	30.195 
08:30	57.6	57.6	57.6	87	53.8	0	0	---	0.00	30.194 
08:35	58.1	58.1	58.1	86	53.9	0	2	0	0.00	30.195 
08:40	58.6	58.6	58.6	84	53.8	0	2	0	0.00	30.196 
08:45	58.9	58.9	58.9	81	53.1	0	1	0	0.00	30.195 
08:50	59.5	59.5	59.5	80	53.3	0	2	0	0.00	30.194 
08:55	59.9	59.9	59.9	76	52.3	0	1	0	0.00	30.193 
09:00	60.5	60.5	60.5	73	51.8	0	1	0	0.00	30.194 
09:05	61.0	61.0	61.0	70	51.1	0	0	---	0.00	30.196 
09:10	61.8	61.8	61.8	70	51.9	1	3	0	0.00	30.196 
09:15	62.4	62.4	62.4	69	52.1	0	3	0	0.00	30.198 
09:20	62.9	62.9	62.9	67	51.8	1	3	22	0.00	30.198 
09:25	63.2	63.2	63.2	68	52.5	0	1	22	0.00	30.200 
09:30	63.4	63.4	63.4	67	52.2	0	1	22	0.00	30.200 
09:35	63.5	63.5	63.5	66	51.9	0	2	22	0.00	30.200 
09:40	64.0	64.0	64.0	62	50.7	0	1	22	0.00	30.199 
09:45	64.0	64.0	64.0	60	49.8	0	2	22	0.00	30.200 
09:50	64.0	64.0	64.0	61	50.3	0	2	22	0.00	30.201 
09:55	64.3	64.3	64.3	61	50.6	0	2	22	0.00	30.200 
10:00	64.7	64.7	64.7	61	50.9	0	2	22	0.00	30.202 
10:05	65.3	65.3	65.3	59	50.6	0	2	22	0.00	30.201 
10:10	65.6	65.6	65.6	59	50.9	0	2	22	0.00	30.202 
10:15	65.6	65.6	65.6	58	50.4	1	3	0	0.00	30.202 
10:20	65.6	65.6	65.6	59	50.9	0	2	248	0.00	30.202 
10:25	65.6	65.6	65.6	56	49.5	1	3	248	0.00	30.203 
10:30	66.1	66.1	66.1	56	49.9	0	2	248	0.00	30.202 
10:35	66.0	66.0	66.0	57	50.3	1	3	338	0.00	30.201 
10:40	65.8	65.8	65.8	59	51.1	0	3	270	0.00	30.202 
10:45	65.8	65.8	65.8	55	49.2	0	1	270	0.00	30.201 
10:50	65.6	65.6	65.6	54	48.5	0	2	270	0.00	30.199 
10:55	65.6	65.6	65.6	59	50.9	0	2	315	0.00	30.195 
11:00	65.5	65.5	65.5	55	48.9	1	3	270	0.00	30.196 
11:05	65.2	65.2	65.2	58	50.0	0	2	292	0.00	30.197 
11:10	65.0	65.0	65.0	58	49.9	0	2	292	0.00	30.196 
11:15	64.5	64.5	64.5	56	48.4	1	2	315	0.00	30.194 
11:20	64.3	64.3	64.3	58	49.2	1	3	315	0.00	30.192 
11:25	64.7	64.7	64.7	61	50.9	0	2	315	0.00	30.192 
11:30	65.3	65.3	65.3	62	51.9	0	2	338	0.00	30.191 
11:35	66.3	66.3	66.3	62	52.9	0	1	338	0.00	30.189 
11:40	66.6	66.6	66.6	52	48.4	1	3	338	0.00	30.189 
11:45	66.8	66.8	66.8	54	49.6	0	3	248	0.00	30.189 
11:50	67.1	67.1	67.1	54	49.9	0	2	225	0.00	30.188 
11:55	67.3	67.3	67.3	53	49.6	1	3	225	0.00	30.188 
12:00	66.9	66.9	66.9	54	49.7	1	3	270	0.00	30.186 
12:05	67.1	67.1	67.1	52	48.9	0	2	270	0.00	30.188 
12:10	66.9	66.9	66.9	53	49.2	1	2	315	0.00	30.186 
12:15	66.9	66.9	66.9	57	51.2	1	2	315	0.00	30.184 
12:20	66.9	66.9	66.9	53	49.2	1	3	0	0.00	30.183 
12:25	66.1	66.1	66.1	54	49.0	0	1	0	0.00	30.182 
12:30	66.0	66.0	66.0	56	49.8	1	3	270	0.00	30.180 
12:35	66.3	66.3	66.3	56	50.1	0	2	270	0.00	30.178 
12:40	66.8	66.8	66.8	59	52.0	0	2	270	0.00	30.176 
12:45	67.6	67.6	67.6	52	49.3	1	2	270	0.00	30.175 
12:50	67.8	67.8	67.8	53	50.0	1	3	315	0.00	30.174 
12:55	68.1	68.1	68.1	54	50.8	0	3	270	0.00	30.172 
13:00	68.4	68.4	68.4	52	50.1	0	1	270	0.00	30.172 
13:05	68.6	68.6	68.6	52	50.3	1	3	270	0.00	30.172 
13:10	68.9	68.9	68.9	52	50.5	0	3	135	0.00	30.169 
13:15	69.4	69.4	69.4	50	49.9	1	3	248	0.00	30.166 
13:20	69.4	69.4	69.4	50	49.9	1	5	248	0.00	30.166 
13:25	68.8	68.8	68.8	52	50.4	0	1	292	0.00	30.163 
13:30	68.6	68.6	68.6	50	49.2	0	1	315	0.00	30.160 
13:35	68.8	68.8	68.8	51	49.9	1	3	0	0.00	30.158 
13:40	69.1	69.1	69.1	51	50.2	1	3	292	0.00	30.158 
13:45	69.1	69.1	69.1	51	50.2	1	3	315	0.00	30.158 
13:50	69.1	69.1	69.1	53	51.2	1	3	90	0.00	30.157 
13:55	69.3	69.3	69.3	49	49.3	0	2	90	0.00	30.156 
14:00	69.9	69.9	69.9	50	50.4	1	2	135	0.00	30.152 
14:05	70.1	70.1	70.1	46	48.3	1	3	135	0.00	30.149 
14:10	69.9	69.9	69.9	49	49.9	1	3	292	0.00	30.147 
14:15	69.9	69.9	69.9	49	49.9	1	3	292	0.00	30.144 
14:20	69.8	69.8	69.8	48	49.2	0	3	292	0.00	30.142 
14:25	69.6	69.6	69.6	48	49.0	0	1	292	0.00	30.141 
14:30	69.8	69.8	69.8	46	48.1	0	1	292	0.00	30.140 
14:35	69.9	69.9	69.9	47	48.7	0	2	292	0.00	30.140 
14:40	69.9	69.9	69.9	47	48.7	0	2	292	0.00	30.140 
14:45	69.9	69.9	69.9	47	48.7	0	2	292	0.00	30.139 
14:50	69.8	69.8	69.8	47	48.6	0	2	292	0.00	30.139 
14:55	69.8	69.8	69.8	46	48.1	1	4	292	0.00	30.139 
15:00	69.6	69.6	69.6	46	47.9	1	3	270	0.00	30.139 
15:05	69.8	69.8	69.8	46	48.1	1	3	315	0.00	30.140 
15:10	69.8	69.8	69.8	48	49.2	0	2	315	0.00	30.138 
15:15	70.1	70.1	70.1	47	48.9	0	1	315	0.00	30.132 
15:20	69.9	69.9	69.9	45	47.6	0	3	270	0.00	30.130 
15:25	69.8	69.8	69.8	46	48.1	0	3	270	0.00	30.129 
15:30	69.6	69.6	69.6	41	44.8	0	2	315	0.00	30.128 
15:35	69.6	69.6	69.6	43	46.1	0	1	315	0.00	30.127 
15:40	69.6	69.6	69.6	43	46.1	0	2	315	0.00	30.127 
15:45	69.6	69.6	69.6	46	47.9	0	1	315	0.00	30.126 
15:50	69.6	69.6	69.6	44	46.7	0	1	315	0.00	30.127 
15:55	69.8	69.8	69.8	44	46.9	0	1	315	0.00	30.127 
16:00	69.9	69.9	69.9	47	48.7	0	3	68	0.00	30.126 
16:05	69.9	69.9	69.9	44	47.0	0	2	45	0.00	30.126 
16:10	69.8	69.8	69.8	44	46.9	0	2	315	0.00	30.125 
16:15	69.6	69.6	69.6	41	44.8	1	2	315	0.00	30.124 
16:20	69.8	69.8	69.8	41	45.0	0	3	315	0.00	30.123 
16:25	69.8	69.8	69.8	43	46.3	0	2	315	0.00	30.122 
16:30	69.6	69.6	69.6	43	46.1	0	2	270	0.00	30.120 
16:35	69.6	69.6	69.6	42	45.5	0	2	270	0.00	30.121 
16:40	69.6	69.6	69.6	44	46.7	1	2	270	0.00	30.117 
16:45	69.6	69.6	69.6	44	46.7	0	1	270	0.00	30.117 
16:50	69.6	69.6	69.6	45	47.3	0	1	270	0.00	30.118 
16:55	69.4	69.4	69.4	44	46.5	0	2	270	0.00	30.120 
17:00	69.3	69.3	69.3	41	44.6	0	2	270	0.00	30.123 
17:05	69.3	69.3	69.3	43	45.8	0	2	270	0.00	30.122 
17:10	69.3	69.3	69.3	43	45.8	0	1	270	0.00	30.121 
17:15	69.3	69.3	69.3	46	47.6	0	1	270	0.00	30.122 
17:20	69.1	69.1	69.1	44	46.3	0	1	270	0.00	30.121 
17:25	68.9	68.9	68.9	43	45.5	0	1	270	0.00	30.119 
17:30	68.8	68.8	68.8	46	47.2	0	0	---	0.00	30.120 
17:35	68.6	68.6	68.6	45	46.4	0	1	270	0.00	30.121 
17:40	68.4	68.4	68.4	45	46.2	0	1	270	0.00	30.123 
17:45	68.3	68.3	68.3	44	45.5	0	1	270	0.00	30.123 
17:50	68.3	68.3	68.3	45	46.1	0	0	---	0.00	30.123 
17:55	68.1	68.1	68.1	46	46.5	0	0	---	0.00	30.126 
18:00	67.9	67.9	67.9	44	45.2	0	1	270	0.00	30.126 
18:05	67.9	67.9	67.9	46	46.3	0	0	---	0.00	30.126 
18:10	67.6	67.6	67.6	49	47.8	0	0	---	0.00	30.127 
18:15	67.3	67.3	67.3	50	48.0	0	0	---	0.00	30.128 
18:20	66.9	66.9	66.9	51	48.2	0	0	---	0.00	30.128 
18:25	66.6	66.6	66.6	51	47.9	0	0	---	0.00	30.128 
18:30	66.1	66.1	66.1	51	47.4	0	0	---	0.00	30.131 
18:35	65.8	65.8	65.8	52	47.7	0	0	---	0.00	30.130 
18:40	65.3	65.3	65.3	54	48.2	0	0	---	0.00	30.131 
18:45	65.0	65.0	65.0	57	49.4	0	0	---	0.00	30.132 
18:50	64.5	64.5	64.5	58	49.4	0	0	---	0.00	30.131 
18:55	63.9	63.9	63.9	59	49.3	0	0	---	0.00	30.133 
19:00	63.2	63.2	63.2	61	49.5	0	0	---	0.00	30.133 
19:05	62.6	62.6	62.6	62	49.4	0	0	---	0.00	30.131 
19:10	62.1	62.1	62.1	63	49.3	0	0	---	0.00	30.131 
19:15	61.6	61.6	61.6	65	49.7	0	0	---	0.00	30.131 
19:20	61.2	61.2	61.2	66	49.7	0	0	---	0.00	30.132 
19:25	60.7	60.7	60.7	68	50.1	0	0	---	0.00	30.132 
19:30	60.2	60.2	60.2	67	49.2	0	0	---	0.00	30.134 
19:35	59.8	59.8	59.8	69	49.6	0	0	---	0.00	30.135 
19:40	59.5	59.5	59.5	71	50.1	0	0	---	0.00	30.138 
19:45	59.0	59.0	59.0	72	50.0	0	0	---	0.00	30.141 
19:50	58.7	58.7	58.7	73	50.1	0	0	---	0.00	30.143 
19:55	58.4	58.4	58.4	75	50.5	0	0	---	0.00	30.146 
20:00	58.1	58.1	58.1	76	50.6	0	0	---	0.00	30.145 
20:05	58.0	58.0	58.0	77	50.8	0	0	---	0.00	30.143 
20:10	57.6	57.6	57.6	77	50.4	0	0	---	0.00	30.144 
20:15	57.3	57.3	57.3	78	50.5	0	0	---	0.00	30.146 
20:20	57.2	57.2	57.2	78	50.4	0	0	---	0.00	30.146 
20:25	56.9	56.9	56.9	79	50.5	0	0	---	0.00	30.146 
20:30	56.6	56.6	56.6	80	50.5	0	0	---	0.00	30.148 
20:35	56.3	56.3	56.3	80	50.2	0	0	---	0.00	30.148 
20:40	56.2	56.2	56.2	81	50.4	0	0	---	0.00	30.150 
20:45	56.0	56.0	56.0	82	50.6	0	0	---	0.00	30.150 
20:50	55.9	55.9	55.9	83	50.8	0	0	---	0.00	30.151 
20:55	55.7	55.7	55.7	83	50.6	0	0	---	0.00	30.149 
21:00	55.6	55.6	55.6	83	50.5	0	0	---	0.00	30.149 
21:05	55.4	55.4	55.4	84	50.6	0	0	---	0.00	30.146 
21:10	55.3	55.3	55.3	84	50.5	0	0	---	0.00	30.147 
21:15	55.1	55.1	55.1	84	50.4	0	0	---	0.00	30.147 
21:20	54.8	54.8	54.8	85	50.4	0	0	---	0.00	30.146 
21:25	54.7	54.7	54.7	85	50.3	0	0	---	0.00	30.146 
21:30	54.5	54.5	54.5	85	50.1	0	0	---	0.00	30.146 
21:35	54.4	54.4	54.4	86	50.3	0	0	---	0.00	30.146 
21:40	54.2	54.2	54.2	86	50.1	0	0	---	0.00	30.149 
21:45	54.1	54.1	54.1	87	50.3	0	0	---	0.00	30.149 
21:50	54.1	54.1	54.1	87	50.3	0	0	---	0.00	30.149 
21:55	53.9	53.9	53.9	88	50.4	0	0	---	0.00	30.149 
22:00	53.8	53.8	53.8	88	50.3	0	0	---	0.00	30.150 
22:05	53.6	53.6	53.6	88	50.1	0	0	---	0.00	30.151 
22:10	53.6	53.6	53.6	89	50.4	0	0	---	0.00	30.153 
22:15	53.5	53.5	53.5	89	50.3	0	0	---	0.00	30.154 
22:20	53.5	53.5	53.5	89	50.3	0	0	---	0.00	30.153 
22:25	53.3	53.3	53.3	89	50.1	0	0	---	0.00	30.152 
22:30	53.3	53.3	53.3	90	50.4	0	0	---	0.00	30.154 
22:35	53.2	53.2	53.2	90	50.3	0	0	---	0.00	30.156 
22:40	53.2	53.2	53.2	90	50.3	0	0	---	0.00	30.157 
22:45	53.1	53.1	53.1	90	50.2	0	0	---	0.00	30.158 
22:50	52.9	52.9	52.9	91	50.3	0	0	---	0.00	30.159 
22:55	52.9	52.9	52.9	91	50.3	0	0	---	0.00	30.158 
23:00	52.8	52.8	52.8	91	50.2	0	0	---	0.00	30.158 
23:05	52.6	52.6	52.6	91	50.0	0	0	---	0.00	30.157 
23:10	52.6	52.6	52.6	91	50.0	0	0	---	0.00	30.158 
23:15	52.5	52.5	52.5	91	49.9	0	0	---	0.00	30.158 
23:20	52.3	52.3	52.3	92	50.0	0	0	---	0.00	30.159 
23:25	52.3	52.3	52.3	92	50.0	0	0	---	0.00	30.159 
23:30	52.2	52.2	52.2	92	49.9	0	0	---	0.00	30.158 
23:35	52.2	52.2	52.2	92	49.9	0	0	---	0.00	30.159 
23:40	52.0	52.0	52.0	92	49.7	0	0	---	0.00	30.159 
23:45	52.0	52.0	52.0	92	49.7	0	0	---	0.00	30.158 
23:50	51.9	51.9	51.9	92	49.6	0	0	---	0.00	30.159 
23:55	51.7	51.7	51.7	92	49.5	0	0	---	0.00	30.159 

CoCoRaHS
IN-AL-39
A2 Web Hosting
Creative Commons License
GoDaddy
Look for:

loaded 2017-10-17 22:10:48 • last modified 2010-11-18 10:43:29
Privacy PolicyDisclaimer
• wx.awcolley.com is powered by PmWiki v.2002016 •
• all content (unless otherwise noted) © 2017 A W Colley